createdAt,value
2023-03-06T00:00:51.421Z,89.70
2023-03-06T00:03:21.494Z,89.70
2023-03-06T00:05:49.392Z,89.90
2023-03-06T00:08:17.613Z,90.00
2023-03-06T00:10:45.919Z,89.90
2023-03-06T00:13:15.937Z,89.60
2023-03-06T00:15:43.977Z,89.40
2023-03-06T00:18:12.444Z,89.80
2023-03-06T00:20:44.151Z,90.00
2023-03-06T00:23:12.895Z,89.60
2023-03-06T00:25:43.902Z,89.50
2023-03-06T00:28:12.329Z,89.10
2023-03-06T00:30:40.539Z,89.20
2023-03-06T00:33:08.457Z,88.90
2023-03-06T00:35:36.479Z,88.70
2023-03-06T00:38:05.844Z,88.80
2023-03-06T00:40:33.842Z,88.70
2023-03-06T00:43:01.771Z,88.80
2023-03-06T00:45:29.744Z,88.80
2023-03-06T00:47:57.731Z,88.70
2023-03-06T00:50:25.697Z,88.60
2023-03-06T00:52:53.579Z,88.70
2023-03-06T00:55:22.849Z,88.80
2023-03-06T00:57:50.829Z,88.90
2023-03-06T01:00:19.761Z,88.90
2023-03-06T01:02:47.752Z,89.10
2023-03-06T01:05:15.740Z,89.00
2023-03-06T01:07:43.859Z,89.20
2023-03-06T01:10:13.001Z,89.40
2023-03-06T01:12:42.407Z,89.80
2023-03-06T01:15:11.934Z,90.00
2023-03-06T01:17:40.123Z,90.00
2023-03-06T01:20:09.250Z,90.10
2023-03-06T01:22:37.141Z,90.20
2023-03-06T01:25:05.600Z,90.20
2023-03-06T01:27:33.511Z,90.10
2023-03-06T01:30:03.008Z,90.10
2023-03-06T01:32:31.607Z,90.10
2023-03-06T01:34:59.607Z,90.10
2023-03-06T01:37:27.505Z,90.10
2023-03-06T01:39:55.597Z,90.10
2023-03-06T01:42:23.654Z,90.20
2023-03-06T01:45:00.232Z,90.10
2023-03-06T01:47:29.778Z,90.10
2023-03-06T01:49:58.774Z,90.10
2023-03-06T01:52:30.249Z,90.00
2023-03-06T01:55:03.379Z,89.90
2023-03-06T01:57:34.935Z,89.80
2023-03-06T02:00:06.582Z,89.90
2023-03-06T02:02:36.025Z,90.00
2023-03-06T02:05:06.616Z,90.20
2023-03-06T02:07:35.346Z,90.10
2023-03-06T02:10:03.284Z,90.10
2023-03-06T02:12:31.554Z,90.30
2023-03-06T02:14:59.695Z,90.30
2023-03-06T02:17:28.725Z,90.30
2023-03-06T02:20:03.009Z,90.30
2023-03-06T02:22:37.113Z,90.20
2023-03-06T02:25:10.665Z,90.20
2023-03-06T02:27:40.050Z,90.20
2023-03-06T02:30:10.037Z,90.20
2023-03-06T02:32:38.063Z,90.20
2023-03-06T02:35:07.106Z,90.20
2023-03-06T02:37:35.062Z,90.10
2023-03-06T02:40:12.197Z,90.00
2023-03-06T02:42:47.489Z,89.70
2023-03-06T02:45:18.335Z,89.70
2023-03-06T02:47:46.209Z,89.40
2023-03-06T02:50:14.187Z,89.40
2023-03-06T02:52:42.078Z,88.80
2023-03-06T02:55:10.620Z,88.90
2023-03-06T02:57:38.561Z,88.90
2023-03-06T03:00:09.992Z,89.30
2023-03-06T03:02:38.052Z,89.20
2023-03-06T03:05:06.939Z,89.00
2023-03-06T03:07:34.816Z,89.20
2023-03-06T03:10:02.982Z,89.60
2023-03-06T03:12:31.208Z,90.00
2023-03-06T03:14:59.244Z,90.00
2023-03-06T03:17:28.515Z,90.00
2023-03-06T03:19:56.500Z,90.20
2023-03-06T03:22:24.461Z,90.10
2023-03-06T03:24:52.465Z,90.40
2023-03-06T03:27:20.462Z,90.20
2023-03-06T03:29:48.383Z,90.10
2023-03-06T03:32:16.329Z,90.10
2023-03-06T03:34:45.620Z,89.90
2023-03-06T03:37:13.577Z,90.00
2023-03-06T03:39:41.521Z,90.20
2023-03-06T03:42:09.815Z,90.30
2023-03-06T03:44:38.860Z,90.20
2023-03-06T03:47:07.373Z,90.50
2023-03-06T03:49:35.303Z,90.30
2023-03-06T03:52:05.244Z,90.30
2023-03-06T03:54:33.144Z,90.30
2023-03-06T03:57:01.085Z,90.20
2023-03-06T03:59:29.298Z,90.20
2023-03-06T04:01:57.288Z,90.30
2023-03-06T04:04:25.405Z,90.10
2023-03-06T04:06:53.447Z,89.50
2023-03-06T04:09:23.134Z,89.30
2023-03-06T04:11:51.065Z,89.50
2023-03-06T04:14:19.062Z,89.80
2023-03-06T04:16:46.983Z,89.40
2023-03-06T04:19:14.867Z,89.10
2023-03-06T04:21:42.838Z,89.00
2023-03-06T04:24:11.039Z,89.20
2023-03-06T04:26:40.404Z,89.00
2023-03-06T04:29:08.800Z,89.30
2023-03-06T04:31:36.736Z,89.50
2023-03-06T04:34:04.775Z,89.40
2023-03-06T04:36:34.881Z,89.30
2023-03-06T04:39:04.000Z,90.00
2023-03-06T04:41:31.915Z,90.20
2023-03-06T04:44:01.322Z,90.30
2023-03-06T04:46:29.280Z,90.30
2023-03-06T04:48:57.187Z,90.60
2023-03-06T04:51:25.369Z,91.00
2023-03-06T04:53:53.481Z,91.00
2023-03-06T04:56:21.390Z,90.90
2023-03-06T04:58:49.293Z,91.20
2023-03-06T05:01:18.731Z,91.10
2023-03-06T05:03:46.827Z,91.00
2023-03-06T05:06:14.741Z,91.10
2023-03-06T05:08:43.041Z,91.00
2023-03-06T05:11:10.932Z,91.50
2023-03-06T05:13:38.915Z,91.70
2023-03-06T05:16:08.538Z,91.70
2023-03-06T05:18:38.317Z,91.70
2023-03-06T05:21:07.233Z,92.00
2023-03-06T05:23:38.350Z,92.00
2023-03-06T05:26:09.313Z,91.60
2023-03-06T05:28:37.450Z,91.60
2023-03-06T05:31:06.332Z,91.20
2023-03-06T05:33:34.506Z,91.10
2023-03-06T05:36:03.946Z,91.00
2023-03-06T05:38:32.870Z,90.70
2023-03-06T05:41:00.800Z,90.70
2023-03-06T05:43:28.715Z,90.70
2023-03-06T05:46:03.037Z,91.00
2023-03-06T05:48:31.296Z,90.90
2023-03-06T05:51:00.030Z,90.80
2023-03-06T05:53:29.585Z,90.90
2023-03-06T05:55:58.633Z,90.90
2023-03-06T05:58:26.682Z,90.60
2023-03-06T06:00:54.664Z,91.30
2023-03-06T06:03:22.654Z,91.00
2023-03-06T06:05:50.943Z,91.20
2023-03-06T06:08:19.254Z,91.00
2023-03-06T06:10:49.252Z,90.80
2023-03-06T06:13:17.954Z,90.50
2023-03-06T06:15:46.056Z,90.80
2023-03-06T06:18:14.007Z,91.00
2023-03-06T06:20:42.000Z,90.60
2023-03-06T06:23:12.145Z,90.30
2023-03-06T06:25:40.179Z,90.30
2023-03-06T06:28:09.624Z,90.20
2023-03-06T06:30:38.338Z,90.30
2023-03-06T06:33:06.478Z,90.50
2023-03-06T06:35:37.720Z,90.80
2023-03-06T06:38:05.814Z,90.60
2023-03-06T06:40:33.757Z,90.40
2023-03-06T06:43:02.010Z,90.60
2023-03-06T06:45:31.382Z,90.50
2023-03-06T06:48:00.022Z,90.50
2023-03-06T06:50:28.071Z,91.10
2023-03-06T06:52:56.208Z,91.40
2023-03-06T06:55:24.123Z,92.00
2023-03-06T06:57:52.108Z,92.30
2023-03-06T07:00:21.013Z,91.80
2023-03-06T07:02:51.202Z,91.90
2023-03-06T07:05:21.783Z,92.00
2023-03-06T07:07:51.274Z,92.20
2023-03-06T07:10:21.039Z,92.40
2023-03-06T07:12:49.069Z,91.90
2023-03-06T07:15:18.744Z,91.80
2023-03-06T07:17:49.489Z,92.40
2023-03-06T07:20:20.109Z,92.00
2023-03-06T07:22:51.693Z,91.70
2023-03-06T07:25:20.606Z,91.80
2023-03-06T07:27:53.339Z,91.70
2023-03-06T07:30:22.759Z,91.80
2023-03-06T07:32:54.193Z,91.50
2023-03-06T07:35:24.436Z,91.70
2023-03-06T07:37:52.643Z,91.60
2023-03-06T07:40:20.879Z,91.60
2023-03-06T07:42:49.076Z,91.40
2023-03-06T07:45:17.289Z,91.60
2023-03-06T07:47:45.561Z,91.80
2023-03-06T07:50:13.727Z,91.60
2023-03-06T07:52:43.131Z,91.50
2023-03-06T07:55:12.324Z,91.60
2023-03-06T07:57:40.501Z,92.00
2023-03-06T08:00:12.707Z,91.10
2023-03-06T08:02:41.482Z,90.90
2023-03-06T08:05:10.412Z,90.50
2023-03-06T08:07:38.672Z,90.50
2023-03-06T08:10:09.307Z,90.60
2023-03-06T08:12:37.274Z,90.30
2023-03-06T08:15:05.891Z,90.40
2023-03-06T08:17:33.931Z,90.50
2023-03-06T08:20:01.893Z,90.40
2023-03-06T08:22:29.825Z,90.30
2023-03-06T08:24:58.175Z,90.30
2023-03-06T08:27:27.496Z,90.40
2023-03-06T08:29:55.504Z,90.00
2023-03-06T08:32:23.508Z,89.80
2023-03-06T08:34:51.444Z,89.50
2023-03-06T08:37:19.481Z,88.20
2023-03-06T08:39:47.473Z,87.60
2023-03-06T08:42:15.850Z,88.50
2023-03-06T08:44:49.160Z,88.40
2023-03-06T08:47:17.144Z,88.50
2023-03-06T08:49:45.223Z,88.50
2023-03-06T08:52:13.162Z,88.00
2023-03-06T08:54:41.608Z,87.30
2023-03-06T08:57:10.037Z,86.80
2023-03-06T08:59:38.152Z,87.50
2023-03-06T09:02:11.747Z,87.70
2023-03-06T09:04:39.735Z,85.30
2023-03-06T09:07:07.729Z,86.00
2023-03-06T09:09:35.698Z,86.10
2023-03-06T09:12:03.696Z,84.30
2023-03-06T09:14:32.880Z,84.20
2023-03-06T09:17:00.822Z,85.80
2023-03-06T09:19:30.387Z,83.80
2023-03-06T09:22:00.965Z,83.80
2023-03-06T09:24:29.349Z,85.40
2023-03-06T09:26:57.259Z,85.10
2023-03-06T09:29:25.250Z,85.10
2023-03-06T09:31:53.226Z,84.30
2023-03-06T09:34:21.707Z,84.40
2023-03-06T09:36:56.720Z,84.00
2023-03-06T09:39:25.374Z,84.10
2023-03-06T09:41:54.086Z,81.90
2023-03-06T09:44:26.863Z,81.90
2023-03-06T09:47:08.915Z,82.50
2023-03-06T09:49:50.878Z,82.30
2023-03-06T09:52:31.657Z,82.20
2023-03-06T09:55:04.015Z,82.50
2023-03-06T09:57:36.121Z,82.50
2023-03-06T10:00:08.357Z,82.30
2023-03-06T10:02:41.508Z,81.00
2023-03-06T10:05:15.037Z,80.70
2023-03-06T10:07:47.917Z,80.90
2023-03-06T10:10:20.812Z,80.40
2023-03-06T10:12:56.629Z,80.20
2023-03-06T10:15:28.372Z,79.40
2023-03-06T10:17:58.424Z,78.90
2023-03-06T10:20:28.504Z,78.00
2023-03-06T10:23:11.834Z,79.00
2023-03-06T10:25:47.703Z,78.90
2023-03-06T10:28:18.437Z,78.40
2023-03-06T10:30:53.270Z,79.60
2023-03-06T10:33:28.332Z,79.50
2023-03-06T10:35:57.214Z,79.60
2023-03-06T10:38:28.442Z,79.90
2023-03-06T10:41:08.685Z,78.80
2023-03-06T10:43:37.475Z,78.90
2023-03-06T10:46:07.730Z,78.60
2023-03-06T10:48:38.149Z,79.60
2023-03-06T10:51:27.166Z,80.10
2023-03-06T10:53:58.951Z,79.30
2023-03-06T10:56:29.111Z,79.30
2023-03-06T10:59:08.665Z,77.50
2023-03-06T11:01:36.947Z,76.30
2023-03-06T11:04:17.949Z,76.80
2023-03-06T11:06:46.064Z,77.10
2023-03-06T11:09:25.008Z,74.60
2023-03-06T11:11:53.650Z,76.40
2023-03-06T11:14:23.248Z,76.50
2023-03-06T11:16:53.731Z,76.70
2023-03-06T11:19:26.453Z,76.50
2023-03-06T11:22:02.731Z,77.50
2023-03-06T11:24:43.420Z,75.40
2023-03-06T11:27:22.528Z,75.50
2023-03-06T11:29:52.618Z,75.40
2023-03-06T11:32:23.690Z,75.90
2023-03-06T11:34:56.014Z,76.20
2023-03-06T11:37:41.437Z,75.60
2023-03-06T11:40:19.792Z,74.80
2023-03-06T11:42:54.114Z,74.90
2023-03-06T11:45:27.426Z,75.30
2023-03-06T11:48:01.715Z,74.30
2023-03-06T11:50:35.952Z,76.60
2023-03-06T11:53:05.948Z,76.50
2023-03-06T11:55:43.636Z,79.20
2023-03-06T11:58:28.234Z,79.20
2023-03-06T12:01:02.921Z,77.40
2023-03-06T12:04:03.497Z,77.10
2023-03-06T12:06:41.825Z,77.70
2023-03-06T12:09:26.128Z,78.60
2023-03-06T12:12:08.285Z,77.80
2023-03-06T12:14:50.640Z,78.50
2023-03-06T12:17:24.453Z,76.00
2023-03-06T12:20:07.716Z,77.00
2023-03-06T12:23:02.503Z,75.50
2023-03-06T12:25:44.999Z,75.60
2023-03-06T12:28:50.252Z,74.90
2023-03-06T12:31:37.291Z,75.10
2023-03-06T12:34:24.909Z,75.20
2023-03-06T12:37:02.385Z,74.10
2023-03-06T12:39:43.897Z,74.30
2023-03-06T12:42:37.898Z,73.90
2023-03-06T12:45:33.087Z,73.10
2023-03-06T12:48:02.086Z,71.70
2023-03-06T12:50:33.306Z,72.90
2023-03-06T12:53:04.952Z,73.90
2023-03-06T12:55:40.647Z,74.40
2023-03-06T12:58:48.358Z,74.30
2023-03-06T13:01:37.067Z,75.10
2023-03-06T13:04:29.196Z,76.00
2023-03-06T13:07:18.826Z,75.90
2023-03-06T13:10:03.007Z,76.00
2023-03-06T13:12:47.530Z,77.20
2023-03-06T13:15:38.097Z,77.20
2023-03-06T13:18:57.288Z,77.10
2023-03-06T13:21:46.511Z,77.80
2023-03-06T13:24:22.301Z,77.20
2023-03-06T13:27:02.041Z,76.50
2023-03-06T13:30:21.937Z,75.80
2023-03-06T13:32:52.585Z,75.30
2023-03-06T13:35:49.372Z,75.90
2023-03-06T13:38:54.708Z,77.00
2023-03-06T13:41:45.666Z,76.40
2023-03-06T13:44:47.330Z,76.20
2023-03-06T13:47:50.543Z,76.80
2023-03-06T13:50:37.975Z,76.10
2023-03-06T13:53:47.355Z,76.70
2023-03-06T13:56:29.905Z,76.70
2023-03-06T13:59:30.668Z,77.40
2023-03-06T14:02:10.008Z,77.50
2023-03-06T14:04:44.440Z,78.70
2023-03-06T14:07:25.135Z,77.80
2023-03-06T14:10:05.338Z,78.50
2023-03-06T14:12:36.119Z,78.00
2023-03-06T14:15:13.368Z,77.60
2023-03-06T14:17:54.076Z,76.60
2023-03-06T14:20:26.758Z,76.90
2023-03-06T14:22:54.681Z,76.30
2023-03-06T14:25:29.578Z,76.40
2023-03-06T14:28:05.639Z,76.70
2023-03-06T14:30:50.387Z,77.10
2023-03-06T14:33:30.610Z,76.50
2023-03-06T14:36:02.658Z,76.80
2023-03-06T14:38:37.261Z,76.90
2023-03-06T14:41:07.402Z,77.20
2023-03-06T14:43:35.298Z,77.30
2023-03-06T14:46:06.366Z,76.20
2023-03-06T14:48:41.250Z,77.10
2023-03-06T14:51:16.776Z,77.30
2023-03-06T14:53:46.017Z,77.20
2023-03-06T14:56:19.654Z,76.50
2023-03-06T14:58:53.401Z,77.00
2023-03-06T15:01:29.689Z,77.30
2023-03-06T15:04:01.014Z,77.10
2023-03-06T15:06:34.378Z,77.40
2023-03-06T15:09:07.715Z,77.40
2023-03-06T15:12:00.744Z,77.00
2023-03-06T15:14:32.338Z,77.30
2023-03-06T15:17:22.889Z,77.70
2023-03-06T15:19:52.491Z,77.10
2023-03-06T15:22:37.312Z,79.00
2023-03-06T15:25:20.083Z,79.40
2023-03-06T15:27:54.346Z,78.40
2023-03-06T15:30:28.883Z,78.80
2023-03-06T15:33:24.035Z,78.30
2023-03-06T15:35:57.073Z,78.70
2023-03-06T15:38:31.046Z,78.40
2023-03-06T15:41:02.229Z,79.20
2023-03-06T15:43:35.360Z,79.00
2023-03-06T15:46:05.257Z,79.10
2023-03-06T15:48:35.254Z,79.60
2023-03-06T15:51:03.813Z,79.40
2023-03-06T15:53:32.083Z,80.10
2023-03-06T15:56:01.100Z,80.40
2023-03-06T15:58:33.927Z,80.20
2023-03-06T16:01:01.947Z,79.70
2023-03-06T16:03:30.028Z,78.70
2023-03-06T16:05:58.047Z,79.30
2023-03-06T16:08:26.324Z,79.70
2023-03-06T16:10:54.253Z,80.10
2023-03-06T16:13:27.977Z,80.90
2023-03-06T16:15:57.323Z,80.70
2023-03-06T16:18:25.307Z,81.70
2023-03-06T16:20:53.230Z,82.30
2023-03-06T16:23:21.154Z,82.50
2023-03-06T16:25:50.164Z,82.80
2023-03-06T16:28:18.464Z,83.10
2023-03-06T16:30:46.688Z,83.70
2023-03-06T16:33:16.070Z,84.00
2023-03-06T16:35:46.513Z,83.90
2023-03-06T16:38:15.637Z,83.50
2023-03-06T16:40:43.935Z,83.10
2023-03-06T16:43:13.403Z,84.10
2023-03-06T16:45:42.474Z,85.40
2023-03-06T16:48:17.761Z,86.40
2023-03-06T16:50:46.513Z,85.80
2023-03-06T16:53:15.282Z,86.30
2023-03-06T16:55:43.262Z,86.40
2023-03-06T16:58:11.243Z,86.20
2023-03-06T17:00:39.304Z,86.50
2023-03-06T17:03:07.904Z,85.30
2023-03-06T17:05:38.035Z,85.30
2023-03-06T17:08:06.281Z,85.10
2023-03-06T17:10:34.369Z,85.30
2023-03-06T17:13:02.646Z,85.60
2023-03-06T17:15:30.638Z,86.40
2023-03-06T17:17:59.258Z,86.00
2023-03-06T17:20:27.208Z,85.30
2023-03-06T17:22:56.765Z,84.70
2023-03-06T17:25:24.793Z,84.50
2023-03-06T17:27:52.742Z,84.50
2023-03-06T17:30:20.792Z,84.90
2023-03-06T17:32:48.716Z,85.30
2023-03-06T17:35:16.833Z,84.90
2023-03-06T17:37:44.784Z,85.10
2023-03-06T17:40:16.504Z,85.00
2023-03-06T17:42:44.417Z,85.10
2023-03-06T17:45:12.974Z,85.20
2023-03-06T17:47:41.014Z,85.30
2023-03-06T17:50:10.694Z,85.30
2023-03-06T17:52:38.920Z,85.80
2023-03-06T17:55:08.488Z,86.00
2023-03-06T17:57:38.615Z,86.50
2023-03-06T18:00:08.261Z,86.40
2023-03-06T18:02:36.596Z,86.30
2023-03-06T18:05:05.293Z,86.40
2023-03-06T18:07:33.557Z,86.20
2023-03-06T18:10:01.584Z,86.20
2023-03-06T18:12:29.562Z,86.10
2023-03-06T18:14:58.973Z,86.50
2023-03-06T18:17:27.344Z,86.50
2023-03-06T18:19:56.842Z,86.80
2023-03-06T18:22:24.773Z,87.10
2023-03-06T18:24:52.975Z,87.20
2023-03-06T18:27:21.828Z,87.30
2023-03-06T18:29:52.072Z,86.40
2023-03-06T18:32:21.403Z,86.50
2023-03-06T18:34:50.704Z,86.90
2023-03-06T18:37:18.836Z,87.40
2023-03-06T18:39:47.026Z,87.10
2023-03-06T18:42:15.623Z,87.00
2023-03-06T18:44:47.634Z,86.90
2023-03-06T18:47:15.990Z,87.70
2023-03-06T18:49:46.231Z,87.30
2023-03-06T18:52:14.468Z,88.00
2023-03-06T18:54:42.761Z,87.90
2023-03-06T18:57:12.154Z,88.20
2023-03-06T18:59:40.443Z,88.30
2023-03-06T19:02:08.986Z,88.50
2023-03-06T19:04:38.071Z,88.70
2023-03-06T19:07:07.769Z,88.60
2023-03-06T19:09:35.683Z,89.00
2023-03-06T19:12:04.151Z,88.60
2023-03-06T19:14:32.137Z,88.10
2023-03-06T19:17:00.162Z,88.10
2023-03-06T19:19:29.276Z,88.30
2023-03-06T19:21:59.440Z,88.70
2023-03-06T19:24:28.825Z,89.00
2023-03-06T19:26:56.702Z,88.40
2023-03-06T19:29:24.799Z,88.50
2023-03-06T19:31:52.811Z,88.00
2023-03-06T19:34:20.753Z,88.30
2023-03-06T19:36:51.184Z,88.80
2023-03-06T19:39:19.572Z,88.20
2023-03-06T19:41:49.176Z,87.90
2023-03-06T19:44:17.566Z,87.40
2023-03-06T19:46:45.550Z,87.70
2023-03-06T19:49:21.699Z,88.00
2023-03-06T19:51:49.599Z,87.60
2023-03-06T19:54:17.604Z,87.00
2023-03-06T19:56:46.599Z,87.60
2023-03-06T19:59:15.926Z,86.70
2023-03-06T20:01:44.130Z,86.90
2023-03-06T20:04:12.191Z,86.80
2023-03-06T20:06:40.184Z,86.50
2023-03-06T20:09:09.798Z,86.70
2023-03-06T20:11:39.410Z,87.60
2023-03-06T20:14:09.041Z,88.50
2023-03-06T20:16:38.680Z,88.10
2023-03-06T20:19:08.578Z,88.70
2023-03-06T20:21:37.801Z,88.60
2023-03-06T20:24:06.886Z,88.00
2023-03-06T20:26:36.684Z,87.70
2023-03-06T20:29:05.217Z,87.90
2023-03-06T20:31:33.365Z,87.70
2023-03-06T20:34:03.404Z,87.90
2023-03-06T20:36:33.913Z,88.10
2023-03-06T20:39:03.492Z,88.20
2023-03-06T20:41:32.192Z,88.00
2023-03-06T20:44:01.153Z,88.00
2023-03-06T20:46:29.697Z,88.00
2023-03-06T20:48:58.100Z,89.00
2023-03-06T20:51:30.125Z,88.50
2023-03-06T20:53:59.029Z,88.20
2023-03-06T20:56:29.131Z,88.20
2023-03-06T20:58:57.344Z,88.70
2023-03-06T21:01:26.868Z,88.20
2023-03-06T21:03:56.697Z,87.90
2023-03-06T21:06:25.470Z,88.10
2023-03-06T21:08:54.884Z,88.30
2023-03-06T21:11:22.904Z,87.90
2023-03-06T21:13:51.107Z,88.20
2023-03-06T21:16:20.826Z,88.10
2023-03-06T21:18:49.161Z,88.20
2023-03-06T21:21:19.242Z,88.50
2023-03-06T21:23:47.736Z,88.90
2023-03-06T21:26:19.040Z,89.10
2023-03-06T21:28:47.188Z,89.30
2023-03-06T21:31:17.149Z,89.70
2023-03-06T21:33:45.716Z,90.00
2023-03-06T21:36:14.029Z,90.00
2023-03-06T21:38:41.952Z,90.00
2023-03-06T21:41:12.021Z,90.00
2023-03-06T21:43:42.561Z,90.20
2023-03-06T21:46:10.710Z,90.00
2023-03-06T21:48:39.207Z,89.80
2023-03-06T21:51:09.026Z,89.90
2023-03-06T21:53:37.208Z,89.90
2023-03-06T21:56:05.865Z,89.70
2023-03-06T21:58:34.011Z,89.70
2023-03-06T22:01:03.655Z,90.00
2023-03-06T22:03:31.897Z,90.10
2023-03-06T22:06:09.082Z,89.70
2023-03-06T22:08:37.076Z,90.00
2023-03-06T22:11:10.012Z,89.80
2023-03-06T22:13:38.394Z,89.90
2023-03-06T22:16:08.863Z,89.70
2023-03-06T22:18:37.085Z,89.10
2023-03-06T22:21:08.389Z,89.10
2023-03-06T22:23:37.274Z,89.20
2023-03-06T22:26:06.754Z,89.20
2023-03-06T22:28:35.017Z,89.50
2023-03-06T22:31:09.642Z,90.00
2023-03-06T22:33:38.015Z,90.10
2023-03-06T22:36:08.574Z,90.10
2023-03-06T22:38:37.870Z,90.00
2023-03-06T22:41:06.881Z,90.10
2023-03-06T22:43:35.059Z,90.00
2023-03-06T22:46:03.395Z,90.20
2023-03-06T22:48:33.197Z,90.30
2023-03-06T22:51:05.364Z,90.20
2023-03-06T22:53:33.969Z,90.20
2023-03-06T22:56:03.104Z,90.30
2023-03-06T22:58:36.757Z,90.00
2023-03-06T23:01:09.683Z,90.00
2023-03-06T23:03:41.085Z,90.30
2023-03-06T23:06:10.967Z,90.30
2023-03-06T23:08:39.233Z,90.20
2023-03-06T23:11:09.935Z,90.30
2023-03-06T23:13:38.158Z,90.40
2023-03-06T23:16:07.362Z,90.30
2023-03-06T23:18:36.312Z,90.40
2023-03-06T23:21:08.831Z,90.00
2023-03-06T23:23:37.600Z,90.10
2023-03-06T23:26:06.399Z,90.50
2023-03-06T23:28:35.011Z,90.80
2023-03-06T23:31:08.037Z,91.00
2023-03-06T23:33:36.894Z,90.80
2023-03-06T23:36:08.315Z,90.90
2023-03-06T23:38:36.728Z,90.50
2023-03-06T23:41:05.735Z,90.90
2023-03-06T23:43:33.843Z,90.10
2023-03-06T23:46:01.920Z,90.30
2023-03-06T23:48:30.495Z,90.70
2023-03-06T23:50:58.444Z,90.80
2023-03-06T23:53:27.744Z,90.40
2023-03-06T23:55:55.672Z,90.50
2023-03-06T23:58:23.598Z,90.60
